Time;durP1;ratioP1;P1;durP2;ratioP2;P2;SDS_P1;SDS_P2;PMS_P1;PMS_P2;Temp;Humidity;BMP_temperature;BMP_pressure;BME280_temperature;BME280_humidity;BME280_pressure;Samples;Min_cycle;Max_cycle;Signal;HPM_P1;HPM_P2
2021/05/23 00:01:28;;;;;;;14.07;11.83;;;;;;;13.32;68.16;99566.13;5083794;28;20570;-71
2021/05/23 00:03:54;;;;;;;13.70;12.40;;;;;;;13.26;67.93;99570.31;5083413;28;20574;-71
2021/05/23 00:06:21;;;;;;;17.57;12.10;;;;;;;13.28;68.25;99570.09;5082661;28;20872;-71
2021/05/23 00:08:48;;;;;;;15.20;12.00;;;;;;;13.00;69.10;99573.25;5083647;28;20482;-71
2021/05/23 00:11:15;;;;;;;14.50;13.00;;;;;;;13.03;68.55;99564.03;5082742;28;20475;-71
2021/05/23 00:13:43;;;;;;;16.70;13.30;;;;;;;13.36;67.75;99573.63;5084340;28;20479;-71
2021/05/23 00:16:11;;;;;;;15.73;14.00;;;;;;;13.30;68.04;99578.84;5082716;28;20487;-72
2021/05/23 00:18:38;;;;;;;16.67;15.13;;;;;;;13.44;67.46;99580.81;5083596;28;20961;-71
2021/05/23 00:21:06;;;;;;;18.13;16.30;;;;;;;12.80;69.37;99578.19;5083284;28;20488;-71
2021/05/23 00:23:33;;;;;;;16.47;14.77;;;;;;;13.21;67.84;99575.38;5083287;28;20479;-71
2021/05/23 00:25:59;;;;;;;17.33;14.60;;;;;;;13.19;67.98;99578.22;5083040;28;20537;-71
2021/05/23 00:28:26;;;;;;;17.10;15.40;;;;;;;13.07;68.49;99568.03;5083532;28;20512;-71
2021/05/23 00:30:52;;;;;;;18.07;16.17;;;;;;;13.04;68.45;99581.78;5082894;28;20502;-71
2021/05/23 00:33:19;;;;;;;18.47;16.47;;;;;;;13.15;68.26;99576.88;5082966;28;20448;-72
2021/05/23 00:35:45;;;;;;;17.97;16.07;;;;;;;13.12;68.24;99577.25;5082992;28;20788;-71
2021/05/23 00:38:12;;;;;;;18.70;16.23;;;;;;;12.94;68.52;99579.31;5082654;28;20437;-71
2021/05/23 00:40:39;;;;;;;18.10;15.93;;;;;;;13.15;68.49;99571.50;5082952;28;20476;-71
2021/05/23 00:43:07;;;;;;;17.80;15.50;;;;;;;12.75;69.88;99581.38;5083015;28;20444;-71
2021/05/23 00:45:33;;;;;;;19.33;15.67;;;;;;;13.00;68.95;99570.56;5082703;28;20502;-71
2021/05/23 00:48:00;;;;;;;18.10;15.00;;;;;;;12.85;69.22;99572.31;5083625;28;20476;-71
2021/05/23 00:50:26;;;;;;;15.97;14.33;;;;;;;12.76;69.60;99574.19;5081946;28;20918;-71
2021/05/23 00:52:54;;;;;;;16.90;14.27;;;;;;;13.00;69.04;99579.47;5083433;28;20475;-71
2021/05/23 00:55:20;;;;;;;16.23;14.63;;;;;;;13.56;67.64;99587.47;5082099;28;20464;-71
2021/05/23 00:57:48;;;;;;;17.07;15.37;;;;;;;13.10;68.80;99581.09;5083079;28;20460;-71
2021/05/23 01:01:04;;;;;;;14.93;13.43;;;;;;;12.90;68.88;99578.00;5081771;28;20459;-71
2021/05/23 01:03:59;;;;;;;15.53;14.03;;;;;;;13.22;68.17;99579.72;5082670;28;20452;-71
2021/05/23 01:06:26;;;;;;;15.33;12.43;;;;;;;12.96;68.53;99577.28;5080383;28;20480;-71
2021/05/23 01:08:53;;;;;;;13.83;12.40;;;;;;;13.16;68.20;99581.25;5082529;28;20484;-71
2021/05/23 01:12:04;;;;;;;13.60;12.17;;;;;;;12.82;68.96;99586.88;5082143;28;20484;-71
2021/05/23 01:14:47;;;;;;;13.70;12.30;;;;;;;12.93;68.57;99591.03;5019945;28;21111;-71
2021/05/23 01:17:14;;;;;;;15.73;14.13;;;;;;;13.30;68.08;99592.28;5019977;28;20479;-71
2021/05/23 01:19:57;;;;;;;14.63;13.20;;;;;;;13.56;67.07;99592.84;5019849;28;20455;-71
2021/05/23 01:22:29;;;;;;;18.13;13.97;;;;;;;12.76;68.93;99591.09;5019506;28;20501;-70
2021/05/23 01:25:14;;;;;;;15.87;13.40;;;;;;;12.56;69.64;99587.94;5020036;28;20458;-71
2021/05/23 01:27:45;;;;;;;18.00;12.70;;;;;;;12.80;69.41;99591.59;5020262;28;20501;-71
2021/05/23 01:30:14;;;;;;;14.47;12.90;;;;;;;12.57;70.01;99594.97;5019544;28;20485;-71
2021/05/23 01:32:43;;;;;;;15.47;13.00;;;;;;;12.50;70.36;99602.03;5019967;28;20447;-71
2021/05/23 01:35:16;;;;;;;17.20;15.00;;;;;;;12.80;68.99;99594.28;5019041;28;21066;-70
2021/05/23 01:37:42;;;;;;;15.87;14.27;;;;;;;12.75;69.50;99593.94;5019815;28;20474;-71
2021/05/23 01:40:11;;;;;;;17.90;15.40;;;;;;;12.73;69.21;99599.47;5013500;28;20487;-71
2021/05/23 01:42:37;;;;;;;16.67;14.80;;;;;;;12.67;69.36;99594.78;5000500;28;20455;-71
2021/05/23 01:45:05;;;;;;;18.10;15.07;;;;;;;12.97;68.28;99595.06;5000133;28;20462;-71
2021/05/23 01:47:31;;;;;;;17.90;15.30;;;;;;;13.18;67.82;99594.50;5009049;28;20551;-71
2021/05/23 01:49:57;;;;;;;15.77;14.17;;;;;;;12.87;68.23;99600.63;5061896;28;20551;-71
2021/05/23 01:52:23;;;;;;;15.47;13.97;;;;;;;13.11;67.92;99607.78;5060992;28;20503;-70
2021/05/23 01:54:49;;;;;;;17.27;14.63;;;;;;;13.02;68.43;99611.50;5054286;28;20454;-71
2021/05/23 01:57:16;;;;;;;16.80;15.10;;;;;;;13.43;67.54;99611.34;5061634;28;20500;-71
2021/05/23 01:59:43;;;;;;;19.47;15.97;;;;;;;13.11;68.66;99613.13;5062067;28;20488;-71
2021/05/23 02:02:09;;;;;;;17.50;15.80;;;;;;;13.12;68.57;99612.13;5061514;28;21034;-71
2021/05/23 02:04:35;;;;;;;17.20;15.00;;;;;;;13.36;67.40;99605.00;5060196;28;20463;-71
2021/05/23 02:07:01;;;;;;;12.93;11.63;;;;;;;13.11;67.43;99620.34;5054379;28;20476;-70
2021/05/23 02:09:27;;;;;;;11.90;10.80;;;;;;;13.35;67.34;99614.94;5060562;28;20488;-70
2021/05/23 02:11:56;;;;;;;12.20;10.90;;;;;;;13.40;66.74;99617.06;5061104;28;20503;-70
2021/05/23 02:14:23;;;;;;;10.80;9.63;;;;;;;13.08;67.69;99613.47;5061581;28;21006;-70
2021/05/23 02:16:54;;;;;;;12.23;11.03;;;;;;;13.31;66.83;99616.25;5060586;28;20511;-70
2021/05/23 02:19:20;;;;;;;11.00;9.63;;;;;;;13.61;66.10;99618.31;5061414;28;20460;-71
2021/05/23 02:21:48;;;;;;;10.37;9.43;;;;;;;13.56;66.07;99617.00;5060820;28;20495;-71
2021/05/23 02:24:15;;;;;;;10.43;9.43;;;;;;;13.72;65.86;99623.31;5061624;28;20453;-70
2021/05/23 02:26:41;;;;;;;10.23;9.20;;;;;;;13.50;65.91;99617.69;5059986;28;20492;-71
2021/05/23 02:29:07;;;;;;;12.73;10.30;;;;;;;13.23;66.23;99623.47;5061392;28;20548;-71
2021/05/23 02:31:35;;;;;;;10.70;9.30;;;;;;;13.08;66.56;99618.84;5060206;28;20484;-71
2021/05/23 02:34:01;;;;;;;10.53;9.50;;;;;;;13.31;66.31;99624.31;5061109;28;20468;-71
2021/05/23 02:36:27;;;;;;;11.60;9.93;;;;;;;13.22;66.81;99633.38;5060179;28;20480;-71
2021/05/23 02:38:53;;;;;;;11.93;10.77;;;;;;;12.95;67.02;99619.38;5060544;28;20467;-71
2021/05/23 02:41:20;;;;;;;11.00;9.83;;;;;;;13.21;66.31;99626.38;5061727;28;20942;-71
2021/05/23 02:43:46;;;;;;;12.97;10.50;;;;;;;13.00;66.64;99632.28;5062134;28;20445;-71
2021/05/23 02:46:12;;;;;;;13.60;10.63;;;;;;;12.98;66.80;99627.09;5073468;28;20480;-71
2021/05/23 02:48:39;;;;;;;10.63;9.23;;;;;;;13.27;65.72;99622.97;5071778;28;20504;-71
2021/05/23 02:51:05;;;;;;;10.70;9.60;;;;;;;12.78;67.18;99623.94;5061563;28;20488;-71
2021/05/23 02:53:32;;;;;;;11.00;9.63;;;;;;;12.93;66.78;99625.91;5069600;28;20461;-72
2021/05/23 02:55:58;;;;;;;10.20;9.20;;;;;;;13.07;66.22;99629.75;5071336;28;20468;-71
2021/05/23 02:58:25;;;;;;;11.33;10.00;;;;;;;13.22;65.99;99624.50;5080120;28;20957;-70
2021/05/23 03:00:51;;;;;;;11.03;9.80;;;;;;;12.98;66.65;99627.09;5079296;28;20976;-71
2021/05/23 03:03:17;;;;;;;13.80;10.60;;;;;;;13.15;65.84;99635.09;5078719;28;20436;-71
2021/05/23 03:05:45;;;;;;;10.47;9.47;;;;;;;12.87;67.04;99632.00;5067239;28;20465;-71
2021/05/23 03:08:11;;;;;;;11.63;10.40;;;;;;;12.99;66.70;99630.63;5072149;28;20513;-71
2021/05/23 03:10:39;;;;;;;11.23;9.30;;;;;;;13.23;66.10;99634.22;5074423;28;20498;-72
2021/05/23 03:13:08;;;;;;;12.60;10.70;;;;;;;13.40;65.34;99640.41;5073933;28;20452;-71
2021/05/23 03:15:35;;;;;;;14.20;10.30;;;;;;;13.16;65.88;99639.47;5072281;28;20673;-71
2021/05/23 03:18:02;;;;;;;15.03;10.03;;;;;;;13.27;65.29;99639.06;5064391;28;20449;-71
2021/05/23 03:20:28;;;;;;;14.50;10.47;;;;;;;13.34;65.39;99639.25;5068879;28;20517;-71
2021/05/23 03:22:57;;;;;;;11.87;10.70;;;;;;;13.40;65.29;99635.84;5073514;28;20973;-71
2021/05/23 03:25:24;;;;;;;17.00;8.90;;;;;;;13.20;65.75;99651.53;5072451;28;20449;-70
2021/05/23 03:27:50;;;;;;;11.63;10.03;;;;;;;13.31;65.25;99645.78;5074424;28;20510;-70
2021/05/23 03:30:19;;;;;;;12.67;10.67;;;;;;;13.32;65.25;99658.22;5056944;28;20483;-71
2021/05/23 03:32:46;;;;;;;13.23;9.03;;;;;;;13.44;64.62;99656.00;5072189;28;20479;-70
2021/05/23 03:35:13;;;;;;;10.43;9.23;;;;;;;13.37;64.81;99660.41;5074314;28;20619;-70
2021/05/23 03:37:39;;;;;;;10.50;9.40;;;;;;;13.25;65.21;99662.59;5075937;28;20452;-71
2021/05/23 03:40:09;;;;;;;12.83;9.80;;;;;;;13.04;65.41;99663.16;5070129;28;20514;-70
2021/05/23 03:42:35;;;;;;;11.23;8.97;;;;;;;13.23;65.42;99669.13;5084310;28;20441;-70
2021/05/23 03:45:01;;;;;;;12.37;9.23;;;;;;;13.45;64.57;99672.94;5084879;28;20449;-70
2021/05/23 03:47:27;;;;;;;10.87;9.17;;;;;;;13.45;64.40;99679.16;5083585;28;20483;-71
2021/05/23 03:49:53;;;;;;;14.67;9.63;;;;;;;13.33;64.61;99677.84;5084134;28;20490;-70
2021/05/23 03:52:20;;;;;;;10.93;9.13;;;;;;;13.33;64.79;99675.16;5083386;28;21016;-70
2021/05/23 03:54:48;;;;;;;14.33;10.50;;;;;;;13.39;64.75;99679.84;5084815;28;20436;-70
2021/05/23 03:57:15;;;;;;;15.77;11.60;;;;;;;13.11;65.62;99688.28;5083326;28;20505;-71
2021/05/23 03:59:41;;;;;;;12.73;9.93;;;;;;;12.97;66.34;99691.66;5083691;28;20451;-71
2021/05/23 04:02:07;;;;;;;18.03;11.00;;;;;;;13.35;64.97;99690.09;5083504;28;20499;-70
2021/05/23 04:04:45;;;;;;;12.23;10.80;;;;;;;13.25;65.35;99694.78;5083890;28;20454;-70
2021/05/23 04:07:12;;;;;;;12.87;10.40;;;;;;;13.30;65.36;99695.13;5081324;28;20510;-70
2021/05/23 04:09:38;;;;;;;13.07;11.63;;;;;;;13.25;65.16;99710.06;5083520;28;20453;-70
2021/05/23 04:12:06;;;;;;;15.57;10.90;;;;;;;13.28;65.59;99704.34;5083751;28;20487;-70
2021/05/23 04:14:33;;;;;;;16.07;11.77;;;;;;;13.35;64.93;99706.22;5076310;28;20515;-70
2021/05/23 04:16:59;;;;;;;14.53;12.33;;;;;;;13.05;66.30;99709.59;5083316;28;20480;-71
2021/05/23 04:19:25;;;;;;;15.50;10.50;;;;;;;13.00;66.18;99712.78;5083099;28;20957;-70
2021/05/23 04:21:51;;;;;;;14.60;11.37;;;;;;;12.77;67.24;99713.47;5083404;28;20581;-70
2021/05/23 04:24:17;;;;;;;16.50;12.00;;;;;;;12.75;67.59;99711.97;5083952;28;20444;-71
2021/05/23 04:26:44;;;;;;;12.70;10.13;;;;;;;12.98;66.50;99717.47;5082919;28;20506;-70
2021/05/23 04:29:10;;;;;;;16.03;12.30;;;;;;;13.09;66.34;99722.50;5083490;28;20969;-71
2021/05/23 04:31:37;;;;;;;17.90;11.30;;;;;;;12.71;67.39;99724.88;5082916;28;20482;-71
2021/05/23 04:34:03;;;;;;;17.53;10.70;;;;;;;12.75;67.14;99728.06;5083586;28;20488;-70
2021/05/23 04:36:29;;;;;;;14.13;11.13;;;;;;;12.85;66.78;99727.91;5082640;28;20510;-70
2021/05/23 04:38:56;;;;;;;14.97;10.60;;;;;;;12.60;68.11;99730.56;5082456;28;20995;-70
2021/05/23 04:41:22;;;;;;;12.67;10.83;;;;;;;12.69;67.51;99729.56;5082929;28;20830;-71
2021/05/23 04:43:48;;;;;;;17.47;12.03;;;;;;;12.81;67.40;99735.41;5075491;28;20448;-70
2021/05/23 04:46:14;;;;;;;18.20;11.13;;;;;;;12.69;67.33;99737.63;5082838;28;21036;-70
2021/05/23 04:48:41;;;;;;;12.90;10.70;;;;;;;12.84;67.17;99732.41;5082074;28;20499;-70
2021/05/23 04:51:07;;;;;;;14.93;10.23;;;;;;;12.77;67.54;99739.44;5082863;28;20510;-70
2021/05/23 04:53:34;;;;;;;16.53;11.10;;;;;;;12.49;68.26;99745.13;5083683;28;20443;-70
2021/05/23 04:56:00;;;;;;;14.40;10.97;;;;;;;12.92;67.70;99753.88;5082439;28;20850;-71
2021/05/23 04:58:26;;;;;;;16.63;10.77;;;;;;;12.98;67.17;99745.16;5082871;28;20467;-71
2021/05/23 05:00:52;;;;;;;14.00;10.60;;;;;;;12.82;66.68;99756.72;5081985;28;20511;-70
2021/05/23 05:03:18;;;;;;;11.23;9.97;;;;;;;12.73;67.91;99756.91;5083283;28;20463;-70
2021/05/23 05:05:45;;;;;;;15.73;11.10;;;;;;;12.74;68.28;99755.88;5081509;28;20664;-70
2021/05/23 05:08:11;;;;;;;16.80;11.33;;;;;;;12.80;67.84;99758.72;5081727;28;20582;-70
2021/05/23 05:10:38;;;;;;;11.70;10.00;;;;;;;13.00;67.62;99761.94;5081097;28;20889;-70
2021/05/23 05:13:04;;;;;;;15.20;9.90;;;;;;;13.25;66.57;99766.44;5082939;28;20476;-70
2021/05/23 05:15:30;;;;;;;16.10;10.27;;;;;;;13.05;67.23;99771.31;5082219;28;20472;-70
2021/05/23 05:17:56;;;;;;;13.67;10.63;;;;;;;13.26;66.68;99777.03;5082532;28;20462;-70
2021/05/23 05:20:23;;;;;;;12.70;10.00;;;;;;;13.22;66.13;99780.19;5081579;28;20443;-70
2021/05/23 05:22:52;;;;;;;13.53;10.37;;;;;;;12.89;67.34;99785.56;5082562;28;20454;-70
2021/05/23 05:25:18;;;;;;;14.70;10.30;;;;;;;13.29;66.15;99776.66;5082076;28;20456;-71
2021/05/23 05:27:44;;;;;;;20.00;10.90;;;;;;;13.35;65.91;99791.28;5081843;28;20526;-71
2021/05/23 05:30:11;;;;;;;10.60;9.50;;;;;;;13.18;66.05;99788.59;5081421;28;20483;-71
2021/05/23 05:32:37;;;;;;;12.10;9.90;;;;;;;13.11;66.35;99792.94;5082407;28;20436;-70
2021/05/23 05:35:05;;;;;;;11.37;8.57;;;;;;;13.32;64.98;99799.69;5084482;28;20487;-71
2021/05/23 05:37:31;;;;;;;14.90;10.00;;;;;;;13.05;65.76;99798.97;5082597;28;20456;-71
2021/05/23 05:39:58;;;;;;;17.90;11.20;;;;;;;13.00;66.76;99806.69;5081371;28;20580;-71
2021/05/23 05:42:24;;;;;;;12.83;10.00;;;;;;;12.81;67.11;99803.34;5081744;28;20507;-71
2021/05/23 05:44:51;;;;;;;12.10;9.43;;;;;;;12.90;67.14;99806.03;5081329;28;20448;-71
2021/05/23 05:47:17;;;;;;;13.63;10.53;;;;;;;13.14;66.46;99805.19;5080693;28;20587;-71
2021/05/23 05:49:43;;;;;;;12.50;10.03;;;;;;;13.42;65.95;99808.41;5081726;28;20476;-71
2021/05/23 05:52:09;;;;;;;14.10;9.57;;;;;;;13.10;66.60;99814.59;5081800;28;20519;-70
2021/05/23 05:54:35;;;;;;;15.53;9.33;;;;;;;13.56;65.92;99815.75;5082253;28;20451;-71
2021/05/23 05:57:02;;;;;;;13.50;9.20;;;;;;;12.85;66.99;99817.25;5081330;28;20487;-70
2021/05/23 05:59:29;;;;;;;14.37;8.53;;;;;;;13.45;65.96;99821.47;5081773;28;20479;-71
2021/05/23 06:01:55;;;;;;;11.07;9.20;;;;;;;13.71;64.83;99817.72;5080733;28;20486;-71
2021/05/23 06:04:21;;;;;;;11.67;8.40;;;;;;;13.77;64.23;99826.97;5081338;28;20697;-71
2021/05/23 06:06:47;;;;;;;12.73;9.10;;;;;;;13.88;64.01;99824.72;5080676;28;20490;-71
2021/05/23 06:09:13;;;;;;;9.80;7.90;;;;;;;13.81;63.92;99823.75;5080605;28;21021;-72
2021/05/23 06:11:39;;;;;;;10.60;7.47;;;;;;;13.49;63.97;99832.72;5081545;28;21031;-72
2021/05/23 06:14:06;;;;;;;9.50;7.47;;;;;;;13.28;64.71;99817.94;5081186;28;20455;-71
2021/05/23 06:16:33;;;;;;;9.50;7.67;;;;;;;13.96;63.53;99825.72;5080918;28;20491;-71
2021/05/23 06:18:59;;;;;;;10.77;7.60;;;;;;;14.35;62.22;99824.91;5080896;28;20475;-71
2021/05/23 06:21:25;;;;;;;8.77;7.87;;;;;;;14.74;61.24;99835.66;5080267;28;20954;-72
2021/05/23 06:23:51;;;;;;;8.60;7.57;;;;;;;14.67;61.21;99830.13;5081078;28;20965;-72
2021/05/23 06:26:17;;;;;;;10.77;8.37;;;;;;;13.93;63.45;99837.66;5080551;28;20476;-69
2021/05/23 06:28:44;;;;;;;8.27;6.93;;;;;;;14.29;62.69;99840.72;5081921;28;20476;-71
2021/05/23 06:31:11;;;;;;;9.50;7.47;;;;;;;14.32;62.42;99845.75;5080297;28;21002;-70
2021/05/23 06:33:37;;;;;;;9.13;7.17;;;;;;;14.09;62.61;99847.53;5081827;28;20432;-70
2021/05/23 06:36:04;;;;;;;8.90;6.67;;;;;;;14.39;62.13;99847.72;5080011;28;20468;-71
2021/05/23 06:38:30;;;;;;;8.00;7.20;;;;;;;13.90;62.93;99854.97;5079920;28;20479;-71
2021/05/23 06:40:56;;;;;;;11.43;6.80;;;;;;;14.27;62.39;99856.19;5079839;28;21063;-71
2021/05/23 06:43:22;;;;;;;8.10;7.30;;;;;;;13.80;63.83;99862.41;5080948;28;20432;-71
2021/05/23 06:45:48;;;;;;;7.93;7.13;;;;;;;13.70;64.09;99872.50;5078937;28;20483;-71
2021/05/23 06:48:15;;;;;;;9.47;7.47;;;;;;;13.83;63.73;99877.31;5076082;28;20488;-71
2021/05/23 06:50:42;;;;;;;8.43;6.53;;;;;;;13.54;64.35;99874.19;5073890;28;20886;-71
2021/05/23 06:53:08;;;;;;;7.97;5.93;;;;;;;13.63;64.11;99882.25;5076244;28;20844;-71
2021/05/23 06:55:34;;;;;;;8.30;7.10;;;;;;;13.99;63.72;99887.19;5078529;28;20671;-71
2021/05/23 06:58:00;;;;;;;7.97;7.17;;;;;;;13.82;64.04;99881.00;5078915;28;20456;-71
2021/05/23 07:00:27;;;;;;;9.03;6.97;;;;;;;14.05;62.76;99883.84;5079403;28;20475;-71
2021/05/23 07:02:53;;;;;;;10.73;7.30;;;;;;;14.58;62.44;99885.00;5078017;28;20458;-71
2021/05/23 07:05:20;;;;;;;10.83;7.00;;;;;;;14.67;61.75;99889.34;5079564;28;20510;-71
2021/05/23 07:07:47;;;;;;;7.80;6.77;;;;;;;14.56;61.45;99903.13;5080055;28;20496;-71
2021/05/23 07:10:14;;;;;;;11.10;7.40;;;;;;;14.01;63.55;99898.59;5077034;28;20471;-71
2021/05/23 07:12:40;;;;;;;7.70;5.90;;;;;;;12.95;65.14;99909.19;5080808;28;20439;-71
2021/05/23 07:15:08;;;;;;;10.10;7.83;;;;;;;13.38;65.44;99909.06;5077480;28;20451;-71
2021/05/23 07:17:34;;;;;;;9.70;6.90;;;;;;;13.38;66.13;99906.41;5080627;28;20444;-71
2021/05/23 07:20:01;;;;;;;7.57;6.77;;;;;;;13.49;65.22;99908.75;5080306;28;20841;-71
2021/05/23 07:22:28;;;;;;;7.53;6.63;;;;;;;13.42;65.23;99901.53;5080342;28;20478;-72
2021/05/23 07:24:54;;;;;;;7.03;5.70;;;;;;;13.19;64.72;99904.84;5080044;28;20514;-71
2021/05/23 07:27:20;;;;;;;8.80;6.10;;;;;;;13.02;66.20;99903.13;5080330;28;21044;-71
2021/05/23 07:29:46;;;;;;;8.33;6.93;;;;;;;13.19;65.54;99908.38;5079468;28;20478;-71
2021/05/23 07:32:12;;;;;;;8.33;7.43;;;;;;;13.86;64.21;99903.88;5080273;28;20472;-72
2021/05/23 07:34:38;;;;;;;10.10;7.30;;;;;;;14.11;63.13;99904.63;5077397;28;20475;-70
2021/05/23 07:37:05;;;;;;;7.70;6.90;;;;;;;13.58;63.47;99906.09;5079452;28;21091;-71
2021/05/23 07:39:32;;;;;;;9.97;7.53;;;;;;;13.96;63.70;99906.34;5079110;28;20491;-70
2021/05/23 07:41:58;;;;;;;7.83;7.13;;;;;;;14.47;63.04;99913.09;5079006;28;20480;-71
2021/05/23 07:44:24;;;;;;;7.03;6.33;;;;;;;14.26;63.27;99924.44;5079910;28;20451;-70
2021/05/23 07:46:50;;;;;;;6.47;5.53;;;;;;;13.87;64.32;99929.72;5075541;28;20498;-71
2021/05/23 07:49:17;;;;;;;8.07;6.57;;;;;;;14.32;63.02;99923.75;5070922;28;20515;-70
2021/05/23 07:51:43;;;;;;;7.73;6.20;;;;;;;14.18;62.82;99935.19;5069039;28;20464;-71
2021/05/23 07:54:09;;;;;;;6.20;5.30;;;;;;;14.12;63.71;99923.28;5069500;28;20514;-71
2021/05/23 07:56:36;;;;;;;9.60;6.77;;;;;;;14.31;62.97;99931.97;5079695;28;20467;-71
2021/05/23 07:59:03;;;;;;;7.20;6.50;;;;;;;14.47;63.74;99937.28;5080007;28;20448;-71
2021/05/23 08:01:30;;;;;;;6.57;5.90;;;;;;;14.16;63.04;99926.47;5079995;28;21018;-71
2021/05/23 08:03:56;;;;;;;6.43;5.73;;;;;;;13.97;63.54;99935.75;5080220;28;20443;-71
2021/05/23 08:06:22;;;;;;;8.73;6.30;;;;;;;14.21;62.38;99942.91;5079188;28;20492;-71
2021/05/23 08:08:48;;;;;;;6.30;5.43;;;;;;;14.12;62.83;99952.84;5075597;28;20488;-71
2021/05/23 08:11:15;;;;;;;5.10;4.60;;;;;;;14.23;62.42;99951.66;5083251;28;20507;-71
2021/05/23 08:13:42;;;;;;;4.43;4.03;;;;;;;13.96;62.09;99952.03;5083990;28;20887;-70
2021/05/23 08:16:10;;;;;;;4.63;4.10;;;;;;;14.23;61.92;99951.66;5083662;28;20479;-70
2021/05/23 08:18:38;;;;;;;4.00;3.70;;;;;;;14.61;60.73;99954.59;5084000;28;20462;-71
2021/05/23 08:21:05;;;;;;;4.63;4.23;;;;;;;15.11;59.48;99955.19;5083147;28;20512;-71
2021/05/23 08:23:32;;;;;;;4.20;3.70;;;;;;;15.25;59.05;99962.50;5084239;28;20456;-71
2021/05/23 08:26:00;;;;;;;4.50;3.80;;;;;;;15.09;60.37;99961.78;5083148;28;20490;-71
2021/05/23 08:28:29;;;;;;;4.57;3.83;;;;;;;15.57;59.18;99966.00;5083230;28;20988;-70
2021/05/23 08:30:57;;;;;;;6.80;4.07;;;;;;;15.35;58.36;99973.06;5083496;28;20469;-71
2021/05/23 08:33:23;;;;;;;4.33;3.93;;;;;;;15.14;59.23;99971.00;5084122;28;20776;-71
2021/05/23 08:35:49;;;;;;;3.90;3.57;;;;;;;14.48;60.80;99970.44;5083503;28;20475;-70
2021/05/23 08:38:16;;;;;;;4.80;4.40;;;;;;;15.39;59.34;99968.97;5082887;28;20467;-70
2021/05/23 08:40:42;;;;;;;4.40;4.00;;;;;;;14.38;60.28;99973.31;5082903;28;20549;-70
2021/05/23 08:43:10;;;;;;;4.27;3.87;;;;;;;15.25;58.14;99967.06;5083810;28;20463;-71
2021/05/23 08:45:37;;;;;;;3.97;3.57;;;;;;;15.52;57.55;99959.47;5082581;28;20463;-71
2021/05/23 08:48:05;;;;;;;4.00;3.40;;;;;;;16.51;54.67;99967.53;5082964;28;20484;-71
2021/05/23 08:50:32;;;;;;;3.23;2.33;;;;;;;17.31;52.42;99971.22;5082426;28;20482;-71
2021/05/23 08:53:00;;;;;;;3.57;2.77;;;;;;;17.26;54.11;99979.06;5083775;28;20977;-70
2021/05/23 08:55:41;;;;;;;3.37;3.07;;;;;;;16.61;53.68;99991.50;5082793;28;20474;-71
2021/05/23 08:58:07;;;;;;;3.33;3.03;;;;;;;16.07;55.91;99998.78;5083130;28;20542;-71
2021/05/23 09:00:34;;;;;;;3.57;3.27;;;;;;;15.19;58.91;100000.94;5081873;28;20467;-72
2021/05/23 09:03:01;;;;;;;5.13;3.67;;;;;;;14.53;62.16;100008.41;5083236;28;20451;-71
2021/05/23 09:05:30;;;;;;;5.27;4.77;;;;;;;14.55;61.02;100019.84;5081854;28;20476;-72
2021/05/23 09:07:57;;;;;;;6.10;5.30;;;;;;;13.50;64.73;100025.06;5082495;28;20495;-69
2021/05/23 09:10:25;;;;;;;7.60;6.90;;;;;;;13.78;64.61;100014.03;5082084;28;20444;-71
2021/05/23 09:12:51;;;;;;;9.27;6.37;;;;;;;13.62;64.97;100002.25;5082813;28;20997;-71
2021/05/23 09:15:18;;;;;;;4.83;4.33;;;;;;;13.55;63.96;100010.13;5082100;28;20509;-71
2021/05/23 09:17:44;;;;;;;4.50;4.10;;;;;;;13.71;64.68;100016.53;5082903;28;20456;-70
2021/05/23 09:20:17;;;;;;;6.20;4.70;;;;;;;13.79;64.58;100021.91;5080903;28;20486;-70
2021/05/23 09:22:51;;;;;;;4.60;4.20;;;;;;;13.71;64.82;100013.84;5081558;28;20436;-71
2021/05/23 09:25:28;;;;;;;5.13;4.63;;;;;;;14.07;64.32;100027.78;5080232;28;20478;-71
2021/05/23 09:27:55;;;;;;;5.57;5.07;;;;;;;13.36;65.65;100022.00;5074671;28;20502;-70
2021/05/23 09:30:24;;;;;;;7.60;6.93;;;;;;;13.42;66.22;100023.22;5079213;28;20459;-74
2021/05/23 09:32:52;;;;;;;6.63;5.97;;;;;;;13.29;67.02;100038.94;5081601;28;20508;-75
2021/05/23 09:35:20;;;;;;;6.87;6.20;;;;;;;12.91;68.07;100038.44;5087214;28;20458;-74
2021/05/23 09:37:57;;;;;;;7.90;6.40;;;;;;;12.80;68.00;100043.09;5075707;28;21130;-72
2021/05/23 09:40:25;;;;;;;9.40;8.60;;;;;;;12.77;67.72;100042.56;5075407;28;20479;-70
2021/05/23 09:42:53;;;;;;;10.70;9.63;;;;;;;12.89;66.94;100057.38;5080514;28;20444;-74
2021/05/23 09:45:20;;;;;;;10.77;9.63;;;;;;;12.68;66.98;100057.78;5081383;28;20444;-74
2021/05/23 09:47:52;;;;;;;11.07;8.70;;;;;;;12.93;66.97;100057.91;5081674;28;20451;-72
2021/05/23 09:50:18;;;;;;;9.67;8.67;;;;;;;13.28;65.53;100058.72;5079481;28;20455;-70
2021/05/23 09:52:44;;;;;;;9.60;8.20;;;;;;;13.96;64.64;100059.53;5078576;28;20454;-70
2021/05/23 09:55:14;;;;;;;12.50;9.73;;;;;;;14.75;61.73;100065.22;5079174;28;20440;-70
2021/05/23 09:57:40;;;;;;;11.13;9.63;;;;;;;15.63;59.53;100064.97;5078818;28;20515;-70
2021/05/23 10:00:09;;;;;;;9.57;8.67;;;;;;;15.05;60.07;100060.91;5074739;28;20484;-72
2021/05/23 10:02:50;;;;;;;9.50;8.03;;;;;;;15.36;60.75;100081.63;5069122;28;20531;-69
2021/05/23 10:05:16;;;;;;;9.70;7.90;;;;;;;14.09;63.00;100070.63;5077653;28;20811;-70
2021/05/23 10:07:43;;;;;;;12.67;10.43;;;;;;;13.61;64.10;100080.31;5079426;28;20482;-70
2021/05/23 10:10:11;;;;;;;13.10;10.37;;;;;;;13.94;64.16;100086.63;5076076;28;20517;-74
2021/05/23 10:12:37;;;;;;;11.70;10.50;;;;;;;13.31;65.39;100096.84;5079137;28;20455;-71
2021/05/23 10:15:05;;;;;;;9.80;8.80;;;;;;;12.11;69.26;100094.91;5078841;28;20440;-69
2021/05/23 10:17:32;;;;;;;15.23;13.73;;;;;;;13.21;65.48;100106.88;5071679;28;20803;-72
2021/05/23 10:19:59;;;;;;;19.50;13.43;;;;;;;14.07;63.89;100097.69;5078920;28;20867;-73
2021/05/23 10:22:25;;;;;;;22.97;12.80;;;;;;;14.83;61.31;100094.81;5081172;28;20479;-70
2021/05/23 10:24:54;;;;;;;14.63;12.53;;;;;;;16.64;57.68;100101.81;5077271;28;20454;-72
2021/05/23 10:27:23;;;;;;;11.03;10.03;;;;;;;18.21;54.40;100090.69;5077701;28;20483;-71
2021/05/23 10:29:51;;;;;;;11.73;9.03;;;;;;;17.24;53.88;100087.34;5079255;28;20494;-68
2021/05/23 10:32:18;;;;;;;11.27;8.97;;;;;;;16.56;56.74;100106.28;5077385;28;20487;-68
2021/05/23 10:34:46;;;;;;;12.43;8.77;;;;;;;16.41;56.02;100100.00;5078728;28;20470;-71
2021/05/23 10:37:13;;;;;;;9.80;7.73;;;;;;;16.88;56.11;100101.59;5078437;28;20484;-70
2021/05/23 10:39:42;;;;;;;9.63;8.60;;;;;;;17.16;55.15;100111.72;5067845;28;20453;-69
2021/05/23 10:42:10;;;;;;;7.80;7.10;;;;;;;16.45;56.25;100103.16;5078123;28;20510;-73
2021/05/23 10:44:42;;;;;;;11.47;8.50;;;;;;;16.44;56.05;100101.47;5078046;28;20445;-69
2021/05/23 10:47:13;;;;;;;10.77;9.60;;;;;;;15.62;57.67;100108.28;5076836;28;20479;-70
2021/05/23 10:49:53;;;;;;;11.27;9.03;;;;;;;15.20;59.11;100112.19;5078115;28;20492;-68
2021/05/23 10:52:19;;;;;;;9.13;8.33;;;;;;;15.67;57.88;100115.84;5076471;28;20471;-72
2021/05/23 10:55:03;;;;;;;13.17;10.07;;;;;;;15.21;58.66;100108.50;5075942;28;20490;-71
2021/05/23 10:57:46;;;;;;;11.27;9.63;;;;;;;16.14;58.06;100117.56;5073397;28;20494;-70
2021/05/23 11:00:20;;;;;;;12.53;10.83;;;;;;;17.60;54.71;100113.56;5077529;28;20490;-67
2021/05/23 11:02:47;;;;;;;10.93;9.10;;;;;;;19.57;50.86;100104.69;5076660;28;20652;-67
2021/05/23 11:05:15;;;;;;;11.17;8.37;;;;;;;19.27;49.60;100101.47;5078033;28;20456;-67
2021/05/23 11:07:53;;;;;;;11.03;7.80;;;;;;;17.85;51.60;100119.44;5078560;28;20444;-70
2021/05/23 11:10:21;;;;;;;7.73;6.97;;;;;;;19.67;48.93;100104.31;5077611;28;20460;-73
2021/05/23 11:12:49;;;;;;;8.70;6.40;;;;;;;20.40;47.93;100113.66;5078567;28;20444;-69
2021/05/23 11:15:17;;;;;;;10.10;6.10;;;;;;;20.28;46.80;100111.56;5076970;28;20507;-75
2021/05/23 11:17:43;;;;;;;6.70;5.63;;;;;;;18.81;48.99;100115.53;5078535;28;20490;-72
2021/05/23 11:20:24;;;;;;;9.03;6.17;;;;;;;18.87;49.20;100103.94;5077509;28;20452;-72
2021/05/23 11:22:58;;;;;;;7.40;5.27;;;;;;;18.74;49.05;100104.63;5079627;28;20514;-66
2021/05/23 11:25:25;;;;;;;8.80;5.07;;;;;;;18.02;49.06;100103.84;5077710;28;20478;-65